createdAt,value
2022-11-16T00:01:43.532Z,27.73
2022-11-16T00:04:12.064Z,26.75
2022-11-16T00:06:39.108Z,28.55
2022-11-16T00:09:26.665Z,29.20
2022-11-16T00:11:56.684Z,30.10
2022-11-16T00:14:25.522Z,26.55
2022-11-16T00:16:52.186Z,31.65
2022-11-16T00:21:46.044Z,32.40
2022-11-16T00:24:14.834Z,27.92
2022-11-16T00:26:42.214Z,27.02
2022-11-16T00:29:21.211Z,27.85
2022-11-16T00:31:48.086Z,29.35
2022-11-16T00:34:18.434Z,28.08
2022-11-16T00:36:46.379Z,23.98
2022-11-16T00:39:15.283Z,26.98
2022-11-16T00:41:44.177Z,27.33
2022-11-16T00:44:11.846Z,27.10
2022-11-16T00:46:38.741Z,23.98
2022-11-16T00:49:06.074Z,27.65
2022-11-16T00:51:34.377Z,23.65
2022-11-16T00:54:01.856Z,26.45
2022-11-16T00:56:28.949Z,26.27
2022-11-16T01:01:22.642Z,25.58
2022-11-16T01:03:51.278Z,26.38
2022-11-16T01:06:20.436Z,25.17
2022-11-16T01:08:49.061Z,27.70
2022-11-16T01:11:35.843Z,29.45
2022-11-16T01:14:07.729Z,27.20
2022-11-16T01:16:37.955Z,25.05
2022-11-16T01:19:04.962Z,27.40
2022-11-16T01:21:35.447Z,28.10
2022-11-16T01:24:02.077Z,28.27
2022-11-16T01:26:29.152Z,31.90
2022-11-16T01:28:56.031Z,27.25
2022-11-16T01:31:23.412Z,26.10
2022-11-16T01:33:51.695Z,28.33
2022-11-16T01:36:24.403Z,31.42
2022-11-16T01:38:52.360Z,29.40
2022-11-16T01:41:25.719Z,27.33
2022-11-16T01:44:04.155Z,28.15
2022-11-16T01:46:43.192Z,28.77
2022-11-16T01:49:17.007Z,25.90
2022-11-16T01:51:51.209Z,33.40
2022-11-16T01:54:19.005Z,29.08
2022-11-16T01:56:56.780Z,26.63
2022-11-16T01:59:46.262Z,32.42
2022-11-16T02:02:17.295Z,25.48
2022-11-16T02:04:47.910Z,30.02
2022-11-16T02:07:30.328Z,30.35
2022-11-16T02:10:15.827Z,29.73
2022-11-16T02:12:53.169Z,27.77
2022-11-16T02:15:35.432Z,35.65
2022-11-16T02:18:21.515Z,29.33
2022-11-16T02:21:03.125Z,30.73
2022-11-16T02:24:03.022Z,31.98
2022-11-16T02:26:54.328Z,27.60
2022-11-16T02:29:28.827Z,28.60
2022-11-16T02:32:17.504Z,27.50
2022-11-16T02:35:11.346Z,29.00
2022-11-16T02:37:49.611Z,24.48
2022-11-16T02:40:21.695Z,26.58
2022-11-16T02:42:58.079Z,22.80
2022-11-16T02:45:28.658Z,22.88
2022-11-16T02:48:03.095Z,19.20
2022-11-16T02:50:32.356Z,26.27
2022-11-16T02:52:58.974Z,20.10
2022-11-16T02:55:30.271Z,19.67
2022-11-16T02:58:11.209Z,18.20
2022-11-16T03:00:48.070Z,19.83
2022-11-16T03:03:39.596Z,17.05
2022-11-16T03:06:23.445Z,19.73
2022-11-16T03:08:59.943Z,19.23
2022-11-16T03:11:49.630Z,16.50
2022-11-16T03:14:22.662Z,18.05
2022-11-16T03:16:54.965Z,16.98
2022-11-16T03:19:30.922Z,17.55
2022-11-16T03:22:06.404Z,17.73
2022-11-16T03:24:36.589Z,19.25
2022-11-16T03:27:12.635Z,19.40
2022-11-16T03:29:44.952Z,18.50
2022-11-16T03:34:48.178Z,20.40
2022-11-16T03:37:15.477Z,17.73
2022-11-16T03:39:43.509Z,20.95
2022-11-16T03:42:14.576Z,19.02
2022-11-16T03:44:46.470Z,17.23
2022-11-16T03:47:13.757Z,20.42
2022-11-16T03:49:45.304Z,18.30
2022-11-16T03:52:19.727Z,18.25
2022-11-16T03:54:48.392Z,16.85
2022-11-16T03:59:51.172Z,17.25
2022-11-16T04:05:03.552Z,18.63
2022-11-16T04:07:48.968Z,24.02
2022-11-16T04:10:34.643Z,18.13
2022-11-16T04:13:21.731Z,17.08
2022-11-16T04:16:07.187Z,19.38
2022-11-16T04:18:52.341Z,16.52
2022-11-16T04:21:48.468Z,18.25
2022-11-16T04:24:18.315Z,18.65
2022-11-16T04:27:09.177Z,20.50
2022-11-16T04:29:37.252Z,16.73
2022-11-16T04:32:23.235Z,17.10
2022-11-16T04:35:08.565Z,17.58
2022-11-16T04:37:52.404Z,18.35
2022-11-16T04:40:29.580Z,19.88
2022-11-16T04:42:59.959Z,16.10
2022-11-16T04:45:50.105Z,20.27
2022-11-16T04:48:20.771Z,19.05
2022-11-16T04:50:50.788Z,18.73
2022-11-16T04:53:18.309Z,18.17
2022-11-16T04:55:51.115Z,20.65
2022-11-16T04:58:20.125Z,16.75
2022-11-16T05:00:47.766Z,21.25
2022-11-16T05:03:14.732Z,20.23
2022-11-16T05:05:44.713Z,21.10
2022-11-16T05:08:12.212Z,22.17
2022-11-16T05:13:05.369Z,25.55
2022-11-16T05:15:32.998Z,21.85
2022-11-16T05:18:00.768Z,23.70
2022-11-16T05:20:47.653Z,27.27
2022-11-16T05:23:33.408Z,26.67
2022-11-16T05:26:05.946Z,27.48
2022-11-16T05:28:32.991Z,29.13
2022-11-16T05:31:00.816Z,26.33
2022-11-16T05:33:30.292Z,30.35
2022-11-16T05:35:57.787Z,27.33
2022-11-16T05:38:24.537Z,28.30
2022-11-16T05:40:57.599Z,24.63
2022-11-16T05:43:24.353Z,24.90
2022-11-16T05:45:59.536Z,25.00
2022-11-16T05:48:26.179Z,25.60
2022-11-16T05:50:59.313Z,26.38
2022-11-16T05:53:28.230Z,21.95
2022-11-16T05:55:58.175Z,27.55
2022-11-16T05:58:31.096Z,24.92
2022-11-16T06:00:59.857Z,30.00
2022-11-16T06:03:30.563Z,30.88
2022-11-16T06:06:05.565Z,29.77
2022-11-16T06:08:35.567Z,32.22
2022-11-16T06:11:09.534Z,31.63
2022-11-16T06:13:38.624Z,27.60
2022-11-16T06:16:07.008Z,26.50
2022-11-16T06:18:40.381Z,28.85
2022-11-16T06:21:09.247Z,27.30
2022-11-16T06:23:36.169Z,27.90
2022-11-16T06:26:04.098Z,28.33
2022-11-16T06:28:32.492Z,28.73
2022-11-16T06:30:59.679Z,28.75
2022-11-16T06:33:32.224Z,27.15
2022-11-16T06:36:02.311Z,27.63
2022-11-16T06:40:58.492Z,24.70
2022-11-16T06:43:27.725Z,26.48
2022-11-16T06:45:57.751Z,28.15
2022-11-16T06:48:25.386Z,22.17
2022-11-16T06:50:52.733Z,23.88
2022-11-16T06:53:27.559Z,23.42
2022-11-16T06:55:56.196Z,25.85
2022-11-16T06:58:22.904Z,23.52
2022-11-16T07:03:16.414Z,20.58
2022-11-16T07:05:43.805Z,23.30
2022-11-16T07:08:14.091Z,22.85
2022-11-16T07:10:40.838Z,22.15
2022-11-16T07:13:08.168Z,26.55
2022-11-16T07:15:37.841Z,22.38
2022-11-16T07:20:37.509Z,28.55
2022-11-16T07:23:05.741Z,30.27
2022-11-16T07:25:34.282Z,26.20
2022-11-16T07:28:02.547Z,24.30
2022-11-16T07:30:29.639Z,22.90
2022-11-16T07:33:09.576Z,28.13
2022-11-16T07:35:55.323Z,25.17
2022-11-16T07:38:22.018Z,25.90
2022-11-16T07:40:48.725Z,26.10
2022-11-16T07:43:18.271Z,26.60
2022-11-16T07:46:44.832Z,33.25
2022-11-16T07:48:53.066Z,26.15
2022-11-16T07:51:38.313Z,23.77
2022-11-16T07:54:20.065Z,27.73
2022-11-16T07:59:13.278Z,27.05
2022-11-16T08:01:43.546Z,29.05
2022-11-16T08:04:11.437Z,29.48
2022-11-16T08:06:41.646Z,25.52
2022-11-16T08:09:09.555Z,24.90
2022-11-16T08:11:38.025Z,25.75
2022-11-16T08:14:04.931Z,27.75
2022-11-16T08:16:33.404Z,29.95
2022-11-16T08:19:08.170Z,26.27
2022-11-16T08:24:02.323Z,19.42
2022-11-16T08:26:30.407Z,22.50
2022-11-16T08:29:02.396Z,22.10
2022-11-16T08:31:34.092Z,24.38
2022-11-16T08:34:08.091Z,23.55
2022-11-16T08:36:37.623Z,24.25
2022-11-16T08:39:06.197Z,23.70
2022-11-16T08:41:35.928Z,21.33
2022-11-16T08:44:02.597Z,23.17
2022-11-16T08:46:30.527Z,22.23
2022-11-16T08:49:07.671Z,23.98
2022-11-16T08:51:34.644Z,25.48
2022-11-16T08:54:06.241Z,23.63
2022-11-16T08:56:35.782Z,24.05
2022-11-16T08:59:03.695Z,24.35
2022-11-16T09:01:32.556Z,29.40
2022-11-16T09:04:00.047Z,23.73
2022-11-16T09:06:28.015Z,24.15
2022-11-16T09:08:56.046Z,28.08
2022-11-16T09:11:25.134Z,30.08
2022-11-16T09:13:54.449Z,27.27
2022-11-16T09:16:22.446Z,26.42
2022-11-16T09:18:51.015Z,26.50
2022-11-16T09:21:19.925Z,28.65
2022-11-16T09:23:47.674Z,26.60
2022-11-16T09:26:15.352Z,29.05
2022-11-16T09:28:42.686Z,24.10
2022-11-16T09:31:10.247Z,26.58
2022-11-16T09:33:37.269Z,29.13
2022-11-16T09:36:09.043Z,35.47
2022-11-16T09:39:19.037Z,42.05
2022-11-16T09:41:47.305Z,35.33
2022-11-16T09:44:37.935Z,28.30
2022-11-16T09:52:10.269Z,20.42
2022-11-16T09:54:42.978Z,28.77
2022-11-16T09:59:54.111Z,23.35
2022-11-16T10:02:32.936Z,26.40
2022-11-16T10:05:22.219Z,25.13
2022-11-16T10:07:59.209Z,23.67
2022-11-16T10:10:39.605Z,22.20
2022-11-16T10:13:18.282Z,21.52
2022-11-16T10:18:34.684Z,22.15
2022-11-16T10:24:05.131Z,21.17
2022-11-16T10:26:42.527Z,21.05
2022-11-16T10:29:35.017Z,24.33
2022-11-16T10:32:14.022Z,19.77
2022-11-16T10:35:01.204Z,25.88
2022-11-16T10:37:32.099Z,25.40
2022-11-16T10:39:59.037Z,21.88
2022-11-16T10:42:32.204Z,21.55
2022-11-16T10:45:11.686Z,23.38
2022-11-16T10:47:50.173Z,24.02
2022-11-16T10:50:19.638Z,21.88
2022-11-16T10:52:46.211Z,21.58
2022-11-16T10:58:03.245Z,18.75
2022-11-16T11:00:42.281Z,21.38
2022-11-16T11:03:10.944Z,21.02
2022-11-16T11:05:48.368Z,24.33
2022-11-16T11:08:26.107Z,20.40
2022-11-16T11:11:24.901Z,21.02
2022-11-16T11:14:10.195Z,25.38
2022-11-16T11:16:39.223Z,22.15
2022-11-16T11:19:26.140Z,23.55
2022-11-16T11:22:01.349Z,23.67
2022-11-16T11:24:44.000Z,21.08
2022-11-16T11:27:11.513Z,24.40
2022-11-16T11:29:42.643Z,23.70
2022-11-16T11:32:23.941Z,22.92
2022-11-16T11:34:54.003Z,20.67
2022-11-16T11:37:25.606Z,21.58
2022-11-16T11:40:19.771Z,22.83
2022-11-16T11:43:21.193Z,24.25
2022-11-16T11:46:15.935Z,22.95
2022-11-16T11:48:59.988Z,28.90
2022-11-16T11:51:47.657Z,20.88
2022-11-16T11:54:24.566Z,21.10
2022-11-16T11:56:53.004Z,29.52
2022-11-16T11:59:23.782Z,26.55
2022-11-16T12:01:50.377Z,24.92
2022-11-16T12:04:57.726Z,24.08
2022-11-16T12:07:27.267Z,25.88
2022-11-16T12:10:07.733Z,27.42
2022-11-16T12:13:12.131Z,28.05
2022-11-16T12:15:48.125Z,26.30
2022-11-16T12:18:20.491Z,23.10
2022-11-16T12:21:12.221Z,28.48
2022-11-16T12:23:57.827Z,27.63
2022-11-16T12:26:24.476Z,25.90
2022-11-16T12:29:22.512Z,28.00
2022-11-16T12:32:07.535Z,25.40
2022-11-16T12:34:40.122Z,19.60
2022-11-16T12:37:28.445Z,20.80
2022-11-16T12:40:15.450Z,22.45
2022-11-16T12:42:53.049Z,19.90
2022-11-16T12:45:32.238Z,25.40
2022-11-16T12:48:21.316Z,25.77
2022-11-16T12:51:03.420Z,23.25
2022-11-16T12:53:41.006Z,23.25
2022-11-16T12:56:25.815Z,26.75
2022-11-16T12:59:09.711Z,22.02
2022-11-16T13:02:00.262Z,28.85
2022-11-16T13:04:37.826Z,22.45
2022-11-16T13:07:11.669Z,24.73
2022-11-16T13:09:47.813Z,23.30
2022-11-16T13:12:19.757Z,23.73
2022-11-16T13:14:48.766Z,22.45
2022-11-16T13:17:24.276Z,27.35
2022-11-16T13:20:17.755Z,20.60
2022-11-16T13:22:55.392Z,20.42
2022-11-16T13:25:48.059Z,20.08
2022-11-16T13:28:20.175Z,20.05
2022-11-16T13:30:59.027Z,23.35
2022-11-16T13:33:50.693Z,30.02
2022-11-16T13:36:40.583Z,21.42
2022-11-16T13:39:08.209Z,26.50
2022-11-16T13:41:40.214Z,22.48
2022-11-16T13:44:28.966Z,21.80
2022-11-16T13:47:04.342Z,25.33
2022-11-16T13:49:41.418Z,21.40
2022-11-16T13:52:23.077Z,23.08
2022-11-16T13:54:55.450Z,28.15
2022-11-16T13:57:24.832Z,26.00
2022-11-16T14:00:00.817Z,26.38
2022-11-16T14:02:30.798Z,25.33
2022-11-16T14:05:18.127Z,26.13
2022-11-16T14:07:49.685Z,28.08
2022-11-16T14:10:35.018Z,28.73
2022-11-16T14:13:06.332Z,28.55
2022-11-16T14:15:36.759Z,25.30
2022-11-16T14:18:09.236Z,25.83
2022-11-16T14:20:51.055Z,25.65
2022-11-16T14:23:26.765Z,24.27
2022-11-16T14:26:02.722Z,24.50
2022-11-16T14:28:40.703Z,25.17
2022-11-16T14:31:14.202Z,24.08
2022-11-16T14:33:41.449Z,26.88
2022-11-16T14:36:10.515Z,24.27
2022-11-16T14:38:41.600Z,23.55
2022-11-16T14:41:21.775Z,20.73
2022-11-16T14:43:55.319Z,20.50
2022-11-16T14:46:36.173Z,22.90
2022-11-16T14:49:03.438Z,20.50
2022-11-16T14:51:32.983Z,21.20
2022-11-16T14:54:16.875Z,20.75
2022-11-16T14:57:00.567Z,22.33
2022-11-16T14:59:28.746Z,21.42
2022-11-16T15:01:56.819Z,20.73
2022-11-16T15:04:27.381Z,24.67
2022-11-16T15:07:04.244Z,21.38
2022-11-16T15:09:31.029Z,17.15
2022-11-16T15:12:18.013Z,21.65
2022-11-16T15:14:49.860Z,29.23
2022-11-16T15:17:20.447Z,30.55
2022-11-16T15:20:01.961Z,30.55
2022-11-16T15:22:32.035Z,32.40
2022-11-16T15:25:00.919Z,30.63
2022-11-16T15:27:40.342Z,32.53
2022-11-16T15:30:17.070Z,35.80
2022-11-16T15:32:46.055Z,35.13
2022-11-16T15:35:22.918Z,35.70
2022-11-16T15:38:25.898Z,35.05
2022-11-16T15:40:54.913Z,36.20
2022-11-16T15:43:25.903Z,33.17
2022-11-16T15:45:53.537Z,38.45
2022-11-16T15:48:23.200Z,36.17
2022-11-16T15:51:07.422Z,36.70
2022-11-16T15:53:39.871Z,39.80
2022-11-16T15:56:13.983Z,34.17
2022-11-16T15:58:42.352Z,32.85
2022-11-16T16:01:11.174Z,31.33
2022-11-16T16:03:46.106Z,32.97
2022-11-16T16:06:16.464Z,29.30
2022-11-16T16:08:45.174Z,35.75
2022-11-16T16:11:27.027Z,32.67
2022-11-16T16:14:02.009Z,33.60
2022-11-16T16:16:39.511Z,32.00
2022-11-16T16:19:26.285Z,31.95
2022-11-16T16:21:53.191Z,36.33
2022-11-16T16:24:41.450Z,35.95
2022-11-16T16:27:22.807Z,32.25
2022-11-16T16:29:51.799Z,34.00
2022-11-16T16:32:21.356Z,29.10
2022-11-16T16:34:48.140Z,33.33
2022-11-16T16:37:15.231Z,32.75
2022-11-16T16:39:42.306Z,33.20
2022-11-16T16:42:12.232Z,34.53
2022-11-16T16:44:39.723Z,36.05
2022-11-16T16:47:06.481Z,33.67
2022-11-16T16:49:33.307Z,34.55
2022-11-16T16:52:00.143Z,29.02
2022-11-16T16:54:28.611Z,37.80
2022-11-16T16:56:57.416Z,38.10
2022-11-16T16:59:24.911Z,32.03
2022-11-16T17:01:51.945Z,28.33
2022-11-16T17:04:20.294Z,28.15
2022-11-16T17:06:48.147Z,25.80
2022-11-16T17:09:14.822Z,24.73
2022-11-16T17:11:44.324Z,26.73
2022-11-16T17:14:11.304Z,27.55
2022-11-16T17:16:38.628Z,27.63
2022-11-16T17:19:05.395Z,25.02
2022-11-16T17:21:32.583Z,23.20
2022-11-16T17:23:59.495Z,20.67
2022-11-16T17:26:29.796Z,23.08
2022-11-16T17:28:57.671Z,20.60
2022-11-16T17:31:26.046Z,23.75
2022-11-16T17:33:52.995Z,23.05
2022-11-16T17:36:20.278Z,19.88
2022-11-16T17:38:47.033Z,22.35
2022-11-16T17:41:21.608Z,23.17
2022-11-16T17:43:52.458Z,23.17
2022-11-16T17:46:21.542Z,24.38
2022-11-16T17:48:48.977Z,24.35
2022-11-16T17:51:17.970Z,27.15
2022-11-16T17:53:45.154Z,22.65
2022-11-16T17:56:17.653Z,29.40
2022-11-16T17:58:50.062Z,27.95
2022-11-16T18:01:16.967Z,29.45
2022-11-16T18:03:43.814Z,22.73
2022-11-16T18:06:16.761Z,25.15
2022-11-16T18:08:46.317Z,25.13
2022-11-16T18:11:16.068Z,31.15
2022-11-16T18:13:43.751Z,21.15
2022-11-16T18:16:18.280Z,26.05
2022-11-16T18:18:46.911Z,24.15
2022-11-16T18:21:20.425Z,21.35
2022-11-16T18:23:48.295Z,23.20
2022-11-16T18:26:18.903Z,25.27
2022-11-16T18:28:46.253Z,27.77
2022-11-16T18:31:18.477Z,26.88
2022-11-16T18:33:45.851Z,30.10
2022-11-16T18:36:13.032Z,29.42
2022-11-16T18:38:39.753Z,26.90
2022-11-16T18:41:12.030Z,27.70
2022-11-16T18:43:40.552Z,27.40
2022-11-16T18:46:11.495Z,22.45
2022-11-16T18:48:39.609Z,20.33
2022-11-16T18:51:06.591Z,17.58
2022-11-16T18:53:33.840Z,18.27
2022-11-16T18:56:00.936Z,18.77
2022-11-16T19:01:17.452Z,17.98
2022-11-16T19:03:44.654Z,19.55
2022-11-16T19:06:12.971Z,16.90
2022-11-16T19:08:43.905Z,22.10
2022-11-16T19:11:13.950Z,17.77
2022-11-16T19:13:42.116Z,23.08
2022-11-16T19:16:10.526Z,23.20
2022-11-16T19:18:37.902Z,19.10
2022-11-16T19:21:06.636Z,17.38
2022-11-16T19:23:42.984Z,21.17
2022-11-16T19:26:12.683Z,17.67
2022-11-16T19:28:41.872Z,19.67
2022-11-16T19:31:27.486Z,18.02
2022-11-16T19:34:13.364Z,16.73
2022-11-16T19:36:40.089Z,21.70
2022-11-16T19:41:33.671Z,15.90
2022-11-16T19:44:01.656Z,21.17
2022-11-16T19:46:30.613Z,17.50
2022-11-16T19:48:57.703Z,18.98
2022-11-16T19:51:27.017Z,19.95
2022-11-16T19:53:53.960Z,21.98
2022-11-16T19:56:22.133Z,20.48
2022-11-16T19:58:49.254Z,24.75
2022-11-16T20:01:21.329Z,21.30
2022-11-16T20:03:49.460Z,20.45
2022-11-16T20:06:19.262Z,21.80
2022-11-16T20:08:50.974Z,24.92
2022-11-16T20:11:23.559Z,28.27
2022-11-16T20:16:24.117Z,24.45
2022-11-16T20:18:52.147Z,21.92
2022-11-16T20:21:40.250Z,21.45
2022-11-16T20:24:09.614Z,17.30
2022-11-16T20:26:40.312Z,19.00
2022-11-16T20:29:07.095Z,21.70
2022-11-16T20:31:34.222Z,21.33
2022-11-16T20:34:04.109Z,17.02
2022-11-16T20:36:33.031Z,17.98
2022-11-16T20:39:00.614Z,16.52
2022-11-16T20:41:30.134Z,18.40
2022-11-16T20:43:58.603Z,18.20
2022-11-16T20:46:27.887Z,23.33
2022-11-16T20:48:57.201Z,22.92
2022-11-16T20:51:24.099Z,24.95
2022-11-16T20:53:52.323Z,29.70
2022-11-16T20:56:20.029Z,28.02
2022-11-16T20:58:48.319Z,21.63
2022-11-16T21:01:32.092Z,23.92
2022-11-16T21:04:04.372Z,19.52
2022-11-16T21:06:32.313Z,30.77
2022-11-16T21:09:00.318Z,30.95
2022-11-16T21:11:29.970Z,39.70
2022-11-16T21:14:15.239Z,39.20
2022-11-16T21:16:42.115Z,34.40
2022-11-16T21:19:09.829Z,21.23
2022-11-16T21:21:38.063Z,17.70
2022-11-16T21:24:04.861Z,17.00
2022-11-16T21:26:33.658Z,21.23
2022-11-16T21:29:01.500Z,14.38
2022-11-16T21:31:30.905Z,19.02
2022-11-16T21:34:00.556Z,36.35
2022-11-16T21:36:29.871Z,25.35
2022-11-16T21:38:58.231Z,26.98
2022-11-16T21:41:26.966Z,21.45
2022-11-16T21:43:54.020Z,21.70
2022-11-16T21:46:24.797Z,17.42
2022-11-16T21:48:52.950Z,19.27
2022-11-16T21:51:22.020Z,15.82
2022-11-16T21:53:48.765Z,15.23
2022-11-16T21:56:17.150Z,15.35
2022-11-16T21:58:44.961Z,19.92
2022-11-16T22:01:13.067Z,20.88
2022-11-16T22:03:39.911Z,18.63
2022-11-16T22:06:30.782Z,19.83
2022-11-16T22:08:57.576Z,20.83
2022-11-16T22:11:24.689Z,17.23
2022-11-16T22:13:51.815Z,19.58
2022-11-16T22:16:20.279Z,18.48
2022-11-16T22:18:47.054Z,17.13
2022-11-16T22:21:13.834Z,16.45
2022-11-16T22:23:40.915Z,15.23
2022-11-16T22:26:11.125Z,18.58
2022-11-16T22:28:38.524Z,17.80
2022-11-16T22:31:07.604Z,25.35
2022-11-16T22:33:34.891Z,17.83
2022-11-16T22:36:02.568Z,18.65
2022-11-16T22:38:30.033Z,21.58
2022-11-16T22:40:57.581Z,20.77
2022-11-16T22:43:26.785Z,20.30
2022-11-16T22:46:04.571Z,22.58
2022-11-16T22:48:36.734Z,26.08
2022-11-16T22:51:12.453Z,38.67
2022-11-16T22:53:39.374Z,31.15
2022-11-16T22:56:07.599Z,37.22
2022-11-16T22:58:35.889Z,27.20
2022-11-16T23:01:02.990Z,25.70
2022-11-16T23:03:30.851Z,26.20
2022-11-16T23:05:57.958Z,22.70
2022-11-16T23:08:27.528Z,18.08
2022-11-16T23:11:31.358Z,17.83
2022-11-16T23:14:17.951Z,19.45
2022-11-16T23:16:45.848Z,24.65
2022-11-16T23:19:33.347Z,21.92
2022-11-16T23:22:19.136Z,19.63
2022-11-16T23:25:05.011Z,21.20
2022-11-16T23:27:58.973Z,17.60
2022-11-16T23:30:25.771Z,17.15
2022-11-16T23:32:53.691Z,19.35
2022-11-16T23:35:21.253Z,16.45
2022-11-16T23:37:54.842Z,20.27
2022-11-16T23:40:23.559Z,23.08
2022-11-16T23:43:10.820Z,21.13
2022-11-16T23:45:38.579Z,18.35
2022-11-16T23:48:07.094Z,15.80
2022-11-16T23:50:34.351Z,20.25
2022-11-16T23:53:01.090Z,17.40
2022-11-16T23:55:28.511Z,23.13
2022-11-16T23:57:56.396Z,17.80
